sensor_id;sensor_type;location;lat;lon;timestamp;P1;durP1;ratioP1;P2;durP2;ratioP2
17171;SDS011;8701;50.150;8.756;2023-02-15T00:01:24;21.00;;;11.30;;
17171;SDS011;8701;50.150;8.756;2023-02-15T00:05:27;18.93;;;11.27;;
17171;SDS011;8701;50.150;8.756;2023-02-15T00:09:30;21.70;;;11.77;;
17171;SDS011;8701;50.150;8.756;2023-02-15T00:13:44;20.03;;;10.90;;
17171;SDS011;8701;50.150;8.756;2023-02-15T00:17:47;20.83;;;10.93;;
17171;SDS011;8701;50.150;8.756;2023-02-15T00:21:49;19.53;;;11.23;;
17171;SDS011;8701;50.150;8.756;2023-02-15T00:25:51;20.47;;;10.50;;
17171;SDS011;8701;50.150;8.756;2023-02-15T00:29:55;20.53;;;11.10;;
17171;SDS011;8701;50.150;8.756;2023-02-15T00:34:00;22.80;;;11.70;;
17171;SDS011;8701;50.150;8.756;2023-02-15T00:38:04;19.67;;;11.20;;
17171;SDS011;8701;50.150;8.756;2023-02-15T00:42:06;22.73;;;12.03;;
17171;SDS011;8701;50.150;8.756;2023-02-15T00:46:10;22.80;;;13.37;;
17171;SDS011;8701;50.150;8.756;2023-02-15T00:50:13;23.43;;;13.47;;
17171;SDS011;8701;50.150;8.756;2023-02-15T00:54:16;23.30;;;13.80;;
17171;SDS011;8701;50.150;8.756;2023-02-15T00:58:18;23.87;;;13.77;;
17171;SDS011;8701;50.150;8.756;2023-02-15T01:02:23;25.13;;;13.50;;
17171;SDS011;8701;50.150;8.756;2023-02-15T01:06:25;21.70;;;12.63;;
17171;SDS011;8701;50.150;8.756;2023-02-15T01:10:28;19.80;;;11.00;;
17171;SDS011;8701;50.150;8.756;2023-02-15T01:14:30;27.00;;;14.00;;
17171;SDS011;8701;50.150;8.756;2023-02-15T01:18:34;25.73;;;13.50;;
17171;SDS011;8701;50.150;8.756;2023-02-15T01:22:38;24.23;;;14.77;;
17171;SDS011;8701;50.150;8.756;2023-02-15T01:26:41;25.77;;;14.37;;
17171;SDS011;8701;50.150;8.756;2023-02-15T01:30:43;24.63;;;13.83;;
17171;SDS011;8701;50.150;8.756;2023-02-15T01:34:47;25.97;;;14.67;;
17171;SDS011;8701;50.150;8.756;2023-02-15T01:38:50;27.43;;;13.80;;
17171;SDS011;8701;50.150;8.756;2023-02-15T01:42:53;26.23;;;14.10;;
17171;SDS011;8701;50.150;8.756;2023-02-15T01:46:56;27.00;;;14.53;;
17171;SDS011;8701;50.150;8.756;2023-02-15T01:51:00;25.00;;;13.30;;
17171;SDS011;8701;50.150;8.756;2023-02-15T01:55:04;29.40;;;15.30;;
17171;SDS011;8701;50.150;8.756;2023-02-15T01:59:08;24.53;;;14.30;;
17171;SDS011;8701;50.150;8.756;2023-02-15T02:03:16;26.90;;;15.40;;
17171;SDS011;8701;50.150;8.756;2023-02-15T02:07:22;28.67;;;15.10;;
17171;SDS011;8701;50.150;8.756;2023-02-15T02:11:28;26.07;;;14.23;;
17171;SDS011;8701;50.150;8.756;2023-02-15T02:15:32;26.20;;;13.80;;
17171;SDS011;8701;50.150;8.756;2023-02-15T02:24:27;29.30;;;14.80;;
17171;SDS011;8701;50.150;8.756;2023-02-15T02:29:17;26.60;;;14.13;;
17171;SDS011;8701;50.150;8.756;2023-02-15T02:33:49;24.63;;;14.13;;
17171;SDS011;8701;50.150;8.756;2023-02-15T02:42:13;25.53;;;14.47;;
17171;SDS011;8701;50.150;8.756;2023-02-15T02:46:20;23.97;;;13.17;;
17171;SDS011;8701;50.150;8.756;2023-02-15T02:50:38;29.73;;;15.03;;
17171;SDS011;8701;50.150;8.756;2023-02-15T02:54:41;31.07;;;15.50;;
17171;SDS011;8701;50.150;8.756;2023-02-15T02:58:45;31.23;;;15.40;;
17171;SDS011;8701;50.150;8.756;2023-02-15T03:02:53;30.17;;;14.00;;
17171;SDS011;8701;50.150;8.756;2023-02-15T03:07:02;28.40;;;15.27;;
17171;SDS011;8701;50.150;8.756;2023-02-15T03:11:08;28.03;;;14.23;;
17171;SDS011;8701;50.150;8.756;2023-02-15T03:15:13;28.67;;;15.00;;
17171;SDS011;8701;50.150;8.756;2023-02-15T03:19:21;29.97;;;15.50;;
17171;SDS011;8701;50.150;8.756;2023-02-15T03:23:28;28.27;;;15.27;;
17171;SDS011;8701;50.150;8.756;2023-02-15T03:27:35;26.13;;;14.50;;
17171;SDS011;8701;50.150;8.756;2023-02-15T03:31:45;27.70;;;15.20;;
17171;SDS011;8701;50.150;8.756;2023-02-15T03:35:52;30.90;;;15.10;;
17171;SDS011;8701;50.150;8.756;2023-02-15T03:40:02;30.00;;;15.90;;
17171;SDS011;8701;50.150;8.756;2023-02-15T03:44:27;29.50;;;15.50;;
17171;SDS011;8701;50.150;8.756;2023-02-15T03:48:31;28.87;;;15.33;;
17171;SDS011;8701;50.150;8.756;2023-02-15T03:52:38;29.67;;;15.03;;
17171;SDS011;8701;50.150;8.756;2023-02-15T03:56:42;31.63;;;15.90;;
17171;SDS011;8701;50.150;8.756;2023-02-15T04:01:11;30.80;;;16.03;;
17171;SDS011;8701;50.150;8.756;2023-02-15T04:05:49;35.37;;;16.17;;
17171;SDS011;8701;50.150;8.756;2023-02-15T04:09:51;29.97;;;16.00;;
17171;SDS011;8701;50.150;8.756;2023-02-15T04:14:12;30.13;;;15.10;;
17171;SDS011;8701;50.150;8.756;2023-02-15T04:18:33;31.80;;;16.00;;
17171;SDS011;8701;50.150;8.756;2023-02-15T04:22:54;34.13;;;16.90;;
17171;SDS011;8701;50.150;8.756;2023-02-15T04:27:14;29.00;;;15.40;;
17171;SDS011;8701;50.150;8.756;2023-02-15T04:31:18;29.63;;;14.93;;
17171;SDS011;8701;50.150;8.756;2023-02-15T04:35:22;30.87;;;16.03;;
17171;SDS011;8701;50.150;8.756;2023-02-15T04:39:25;31.40;;;15.90;;
17171;SDS011;8701;50.150;8.756;2023-02-15T04:43:27;32.03;;;15.20;;
17171;SDS011;8701;50.150;8.756;2023-02-15T04:47:31;36.37;;;16.40;;
17171;SDS011;8701;50.150;8.756;2023-02-15T04:51:33;35.13;;;15.50;;
17171;SDS011;8701;50.150;8.756;2023-02-15T04:55:37;29.67;;;14.73;;
17171;SDS011;8701;50.150;8.756;2023-02-15T04:59:40;31.13;;;15.00;;
17171;SDS011;8701;50.150;8.756;2023-02-15T05:03:44;34.70;;;15.13;;
17171;SDS011;8701;50.150;8.756;2023-02-15T05:07:46;30.37;;;14.40;;
17171;SDS011;8701;50.150;8.756;2023-02-15T05:11:49;39.80;;;17.20;;
17171;SDS011;8701;50.150;8.756;2023-02-15T05:15:52;36.00;;;16.43;;
17171;SDS011;8701;50.150;8.756;2023-02-15T05:19:56;35.43;;;16.77;;
17171;SDS011;8701;50.150;8.756;2023-02-15T05:23:58;34.63;;;16.80;;
17171;SDS011;8701;50.150;8.756;2023-02-15T05:32:22;37.67;;;16.20;;
17171;SDS011;8701;50.150;8.756;2023-02-15T05:36:26;33.17;;;16.00;;
17171;SDS011;8701;50.150;8.756;2023-02-15T05:40:31;38.70;;;17.33;;
17171;SDS011;8701;50.150;8.756;2023-02-15T05:44:33;40.23;;;18.00;;
17171;SDS011;8701;50.150;8.756;2023-02-15T05:48:36;40.87;;;17.07;;
17171;SDS011;8701;50.150;8.756;2023-02-15T05:52:40;43.73;;;17.70;;
17171;SDS011;8701;50.150;8.756;2023-02-15T05:56:47;39.67;;;17.53;;
17171;SDS011;8701;50.150;8.756;2023-02-15T06:00:49;40.80;;;17.47;;
17171;SDS011;8701;50.150;8.756;2023-02-15T06:04:52;40.23;;;17.30;;
17171;SDS011;8701;50.150;8.756;2023-02-15T06:08:56;41.20;;;18.00;;
17171;SDS011;8701;50.150;8.756;2023-02-15T06:13:04;42.77;;;18.93;;
17171;SDS011;8701;50.150;8.756;2023-02-15T06:17:06;38.90;;;17.97;;
17171;SDS011;8701;50.150;8.756;2023-02-15T06:21:09;43.10;;;18.50;;
17171;SDS011;8701;50.150;8.756;2023-02-15T06:25:13;45.53;;;17.80;;
17171;SDS011;8701;50.150;8.756;2023-02-15T06:29:15;43.57;;;19.37;;
17171;SDS011;8701;50.150;8.756;2023-02-15T06:33:19;46.50;;;19.57;;
17171;SDS011;8701;50.150;8.756;2023-02-15T06:37:22;44.43;;;18.90;;
17171;SDS011;8701;50.150;8.756;2023-02-15T06:41:31;45.27;;;17.97;;
17171;SDS011;8701;50.150;8.756;2023-02-15T06:45:33;41.73;;;18.80;;
17171;SDS011;8701;50.150;8.756;2023-02-15T06:49:39;36.03;;;17.77;;
17171;SDS011;8701;50.150;8.756;2023-02-15T06:53:45;41.13;;;17.97;;
17171;SDS011;8701;50.150;8.756;2023-02-15T06:57:54;36.63;;;17.37;;
17171;SDS011;8701;50.150;8.756;2023-02-15T07:01:57;44.33;;;17.97;;
17171;SDS011;8701;50.150;8.756;2023-02-15T07:06:17;44.90;;;17.90;;
17171;SDS011;8701;50.150;8.756;2023-02-15T07:10:21;41.47;;;17.83;;
17171;SDS011;8701;50.150;8.756;2023-02-15T07:14:25;45.23;;;18.93;;
17171;SDS011;8701;50.150;8.756;2023-02-15T07:18:33;41.97;;;17.90;;
17171;SDS011;8701;50.150;8.756;2023-02-15T07:22:35;37.70;;;17.03;;
17171;SDS011;8701;50.150;8.756;2023-02-15T07:26:38;37.47;;;16.43;;
17171;SDS011;8701;50.150;8.756;2023-02-15T07:30:46;37.00;;;15.17;;
17171;SDS011;8701;50.150;8.756;2023-02-15T07:34:51;40.60;;;17.47;;
17171;SDS011;8701;50.150;8.756;2023-02-15T07:38:56;37.63;;;17.60;;
17171;SDS011;8701;50.150;8.756;2023-02-15T07:43:00;39.00;;;18.50;;
17171;SDS011;8701;50.150;8.756;2023-02-15T07:47:05;35.93;;;17.40;;
17171;SDS011;8701;50.150;8.756;2023-02-15T07:55:18;36.17;;;17.23;;
17171;SDS011;8701;50.150;8.756;2023-02-15T07:59:20;42.60;;;18.00;;
17171;SDS011;8701;50.150;8.756;2023-02-15T08:03:27;35.83;;;16.27;;
17171;SDS011;8701;50.150;8.756;2023-02-15T08:07:29;35.87;;;15.47;;
17171;SDS011;8701;50.150;8.756;2023-02-15T08:11:34;40.20;;;17.77;;
17171;SDS011;8701;50.150;8.756;2023-02-15T08:15:47;36.17;;;15.47;;
17171;SDS011;8701;50.150;8.756;2023-02-15T08:19:51;35.37;;;16.10;;
17171;SDS011;8701;50.150;8.756;2023-02-15T08:23:55;28.67;;;14.90;;
17171;SDS011;8701;50.150;8.756;2023-02-15T08:27:58;32.50;;;15.30;;
17171;SDS011;8701;50.150;8.756;2023-02-15T08:32:00;26.70;;;12.40;;
17171;SDS011;8701;50.150;8.756;2023-02-15T08:36:08;31.57;;;15.90;;
17171;SDS011;8701;50.150;8.756;2023-02-15T08:40:14;30.57;;;14.13;;
17171;SDS011;8701;50.150;8.756;2023-02-15T08:44:19;30.17;;;16.07;;
17171;SDS011;8701;50.150;8.756;2023-02-15T08:48:27;24.53;;;11.90;;
17171;SDS011;8701;50.150;8.756;2023-02-15T08:52:32;22.80;;;11.37;;
17171;SDS011;8701;50.150;8.756;2023-02-15T08:56:41;25.47;;;12.77;;
17171;SDS011;8701;50.150;8.756;2023-02-15T09:00:49;23.77;;;13.83;;
17171;SDS011;8701;50.150;8.756;2023-02-15T09:04:56;24.33;;;12.60;;
17171;SDS011;8701;50.150;8.756;2023-02-15T09:09:00;29.17;;;14.07;;
17171;SDS011;8701;50.150;8.756;2023-02-15T09:13:05;21.97;;;11.77;;
17171;SDS011;8701;50.150;8.756;2023-02-15T09:17:08;24.63;;;12.53;;
17171;SDS011;8701;50.150;8.756;2023-02-15T09:25:22;24.20;;;12.40;;
17171;SDS011;8701;50.150;8.756;2023-02-15T09:29:25;22.10;;;11.50;;
17171;SDS011;8701;50.150;8.756;2023-02-15T09:38:00;21.27;;;11.60;;
17171;SDS011;8701;50.150;8.756;2023-02-15T09:42:20;21.17;;;11.57;;
17171;SDS011;8701;50.150;8.756;2023-02-15T09:46:42;16.47;;;10.00;;
17171;SDS011;8701;50.150;8.756;2023-02-15T09:51:03;19.47;;;10.90;;
17171;SDS011;8701;50.150;8.756;2023-02-15T09:55:38;19.30;;;10.30;;
17171;SDS011;8701;50.150;8.756;2023-02-15T09:59:52;17.37;;;9.73;;
17171;SDS011;8701;50.150;8.756;2023-02-15T10:08:43;17.43;;;9.90;;
17171;SDS011;8701;50.150;8.756;2023-02-15T10:13:12;22.53;;;12.17;;
17171;SDS011;8701;50.150;8.756;2023-02-15T10:17:32;18.27;;;10.37;;
17171;SDS011;8701;50.150;8.756;2023-02-15T10:21:55;19.63;;;11.67;;
17171;SDS011;8701;50.150;8.756;2023-02-15T10:26:07;20.20;;;9.70;;
17171;SDS011;8701;50.150;8.756;2023-02-15T10:30:22;17.77;;;10.47;;
17171;SDS011;8701;50.150;8.756;2023-02-15T10:38:52;19.27;;;10.90;;
17171;SDS011;8701;50.150;8.756;2023-02-15T10:47:36;13.07;;;8.40;;
17171;SDS011;8701;50.150;8.756;2023-02-15T10:52:01;15.60;;;8.93;;
17171;SDS011;8701;50.150;8.756;2023-02-15T11:00:29;13.33;;;8.60;;
17171;SDS011;8701;50.150;8.756;2023-02-15T11:04:41;15.67;;;9.87;;
17171;SDS011;8701;50.150;8.756;2023-02-15T11:08:51;21.20;;;10.80;;
17171;SDS011;8701;50.150;8.756;2023-02-15T11:12:57;17.00;;;10.87;;
17171;SDS011;8701;50.150;8.756;2023-02-15T11:21:13;18.10;;;10.60;;
17171;SDS011;8701;50.150;8.756;2023-02-15T11:25:26;16.70;;;10.23;;
17171;SDS011;8701;50.150;8.756;2023-02-15T11:29:50;23.47;;;11.53;;
17171;SDS011;8701;50.150;8.756;2023-02-15T11:33:59;18.13;;;9.63;;
17171;SDS011;8701;50.150;8.756;2023-02-15T11:38:14;21.03;;;11.50;;
17171;SDS011;8701;50.150;8.756;2023-02-15T11:42:21;23.03;;;12.13;;
17171;SDS011;8701;50.150;8.756;2023-02-15T11:46:29;17.47;;;10.00;;
17171;SDS011;8701;50.150;8.756;2023-02-15T11:50:37;19.90;;;12.20;;
17171;SDS011;8701;50.150;8.756;2023-02-15T11:54:40;22.53;;;13.03;;
17171;SDS011;8701;50.150;8.756;2023-02-15T11:58:53;25.73;;;13.40;;
17171;SDS011;8701;50.150;8.756;2023-02-15T12:03:00;22.90;;;12.10;;
17171;SDS011;8701;50.150;8.756;2023-02-15T12:07:10;18.80;;;11.20;;
17171;SDS011;8701;50.150;8.756;2023-02-15T12:11:17;27.43;;;14.70;;
17171;SDS011;8701;50.150;8.756;2023-02-15T12:15:29;29.80;;;14.57;;
17171;SDS011;8701;50.150;8.756;2023-02-15T12:19:36;30.70;;;15.00;;
17171;SDS011;8701;50.150;8.756;2023-02-15T12:23:41;26.60;;;14.00;;
17171;SDS011;8701;50.150;8.756;2023-02-15T12:27:49;29.53;;;16.80;;
17171;SDS011;8701;50.150;8.756;2023-02-15T12:31:54;33.83;;;16.43;;
17171;SDS011;8701;50.150;8.756;2023-02-15T12:35:57;30.60;;;16.60;;
17171;SDS011;8701;50.150;8.756;2023-02-15T12:40:19;37.60;;;18.17;;
17171;SDS011;8701;50.150;8.756;2023-02-15T12:44:23;31.00;;;16.40;;
17171;SDS011;8701;50.150;8.756;2023-02-15T12:48:28;29.30;;;16.90;;
17171;SDS011;8701;50.150;8.756;2023-02-15T12:52:31;30.63;;;15.40;;
17171;SDS011;8701;50.150;8.756;2023-02-15T12:56:36;33.10;;;16.20;;
17171;SDS011;8701;50.150;8.756;2023-02-15T13:00:42;31.80;;;15.73;;
17171;SDS011;8701;50.150;8.756;2023-02-15T13:04:48;30.40;;;16.30;;
17171;SDS011;8701;50.150;8.756;2023-02-15T13:08:52;32.97;;;17.33;;
17171;SDS011;8701;50.150;8.756;2023-02-15T13:13:08;35.23;;;17.17;;
17171;SDS011;8701;50.150;8.756;2023-02-15T13:17:12;32.07;;;17.70;;
17171;SDS011;8701;50.150;8.756;2023-02-15T13:21:19;42.07;;;19.30;;
17171;SDS011;8701;50.150;8.756;2023-02-15T13:25:26;36.07;;;18.67;;
17171;SDS011;8701;50.150;8.756;2023-02-15T13:29:39;35.07;;;18.80;;
17171;SDS011;8701;50.150;8.756;2023-02-15T13:33:46;39.13;;;18.87;;
17171;SDS011;8701;50.150;8.756;2023-02-15T13:37:57;37.87;;;19.00;;
17171;SDS011;8701;50.150;8.756;2023-02-15T13:42:27;37.03;;;18.97;;
17171;SDS011;8701;50.150;8.756;2023-02-15T13:46:42;38.87;;;18.60;;
17171;SDS011;8701;50.150;8.756;2023-02-15T13:50:59;48.07;;;20.70;;
17171;SDS011;8701;50.150;8.756;2023-02-15T13:55:26;32.13;;;16.13;;
17171;SDS011;8701;50.150;8.756;2023-02-15T13:59:46;41.83;;;22.53;;
17171;SDS011;8701;50.150;8.756;2023-02-15T14:04:08;44.40;;;21.50;;
17171;SDS011;8701;50.150;8.756;2023-02-15T14:08:29;35.97;;;16.50;;
17171;SDS011;8701;50.150;8.756;2023-02-15T14:12:46;40.37;;;19.60;;
17171;SDS011;8701;50.150;8.756;2023-02-15T14:17:01;49.10;;;20.37;;
17171;SDS011;8701;50.150;8.756;2023-02-15T14:21:15;39.77;;;21.13;;
17171;SDS011;8701;50.150;8.756;2023-02-15T14:25:23;44.87;;;19.67;;
17171;SDS011;8701;50.150;8.756;2023-02-15T14:29:36;34.57;;;17.67;;
17171;SDS011;8701;50.150;8.756;2023-02-15T14:33:50;33.90;;;17.97;;
17171;SDS011;8701;50.150;8.756;2023-02-15T14:38:00;39.40;;;20.60;;
17171;SDS011;8701;50.150;8.756;2023-02-15T14:42:09;40.87;;;19.90;;
17171;SDS011;8701;50.150;8.756;2023-02-15T14:46:25;34.67;;;18.37;;
17171;SDS011;8701;50.150;8.756;2023-02-15T14:50:45;38.87;;;19.80;;
17171;SDS011;8701;50.150;8.756;2023-02-15T14:54:57;42.77;;;21.00;;
17171;SDS011;8701;50.150;8.756;2023-02-15T14:59:11;38.77;;;20.37;;
17171;SDS011;8701;50.150;8.756;2023-02-15T15:03:20;42.90;;;19.67;;
17171;SDS011;8701;50.150;8.756;2023-02-15T15:07:35;39.30;;;19.70;;
17171;SDS011;8701;50.150;8.756;2023-02-15T15:11:41;49.57;;;21.53;;
17171;SDS011;8701;50.150;8.756;2023-02-15T15:15:46;42.67;;;21.03;;
17171;SDS011;8701;50.150;8.756;2023-02-15T15:24:52;48.00;;;22.67;;
17171;SDS011;8701;50.150;8.756;2023-02-15T15:29:01;50.47;;;22.20;;
17171;SDS011;8701;50.150;8.756;2023-02-15T15:33:07;44.43;;;22.27;;
17171;SDS011;8701;50.150;8.756;2023-02-15T15:37:45;48.93;;;23.90;;
17171;SDS011;8701;50.150;8.756;2023-02-15T15:42:01;46.60;;;21.80;;
17171;SDS011;8701;50.150;8.756;2023-02-15T15:51:03;46.60;;;22.73;;
17171;SDS011;8701;50.150;8.756;2023-02-15T15:59:20;40.37;;;20.30;;
17171;SDS011;8701;50.150;8.756;2023-02-15T16:03:27;43.80;;;19.67;;
17171;SDS011;8701;50.150;8.756;2023-02-15T16:07:32;45.23;;;21.60;;
17171;SDS011;8701;50.150;8.756;2023-02-15T16:11:37;48.83;;;23.73;;
17171;SDS011;8701;50.150;8.756;2023-02-15T16:15:42;43.90;;;20.83;;
17171;SDS011;8701;50.150;8.756;2023-02-15T16:19:51;47.47;;;23.30;;
17171;SDS011;8701;50.150;8.756;2023-02-15T16:24:21;49.00;;;23.57;;
17171;SDS011;8701;50.150;8.756;2023-02-15T16:28:48;47.63;;;20.97;;
17171;SDS011;8701;50.150;8.756;2023-02-15T16:32:55;55.73;;;24.90;;
17171;SDS011;8701;50.150;8.756;2023-02-15T16:37:16;55.33;;;24.27;;
17171;SDS011;8701;50.150;8.756;2023-02-15T16:41:20;53.40;;;23.97;;
17171;SDS011;8701;50.150;8.756;2023-02-15T16:45:35;48.63;;;22.97;;
17171;SDS011;8701;50.150;8.756;2023-02-15T16:49:39;57.53;;;25.03;;
17171;SDS011;8701;50.150;8.756;2023-02-15T16:53:49;61.67;;;26.60;;
17171;SDS011;8701;50.150;8.756;2023-02-15T16:58:13;60.60;;;27.17;;
17171;SDS011;8701;50.150;8.756;2023-02-15T17:02:19;56.80;;;25.30;;
17171;SDS011;8701;50.150;8.756;2023-02-15T17:06:29;52.67;;;23.83;;
17171;SDS011;8701;50.150;8.756;2023-02-15T17:10:32;59.10;;;27.30;;
17171;SDS011;8701;50.150;8.756;2023-02-15T17:14:37;63.43;;;28.50;;
17171;SDS011;8701;50.150;8.756;2023-02-15T17:18:44;69.90;;;27.13;;
17171;SDS011;8701;50.150;8.756;2023-02-15T17:22:47;70.80;;;27.70;;
17171;SDS011;8701;50.150;8.756;2023-02-15T17:26:50;69.27;;;28.33;;
17171;SDS011;8701;50.150;8.756;2023-02-15T17:31:02;66.47;;;28.90;;
17171;SDS011;8701;50.150;8.756;2023-02-15T17:35:16;77.47;;;31.63;;
17171;SDS011;8701;50.150;8.756;2023-02-15T17:39:22;68.57;;;29.27;;
17171;SDS011;8701;50.150;8.756;2023-02-15T17:43:24;61.37;;;26.73;;
17171;SDS011;8701;50.150;8.756;2023-02-15T17:47:34;70.53;;;30.30;;
17171;SDS011;8701;50.150;8.756;2023-02-15T17:51:38;67.57;;;29.23;;
17171;SDS011;8701;50.150;8.756;2023-02-15T17:55:41;60.03;;;29.93;;
17171;SDS011;8701;50.150;8.756;2023-02-15T17:59:48;64.83;;;27.70;;
17171;SDS011;8701;50.150;8.756;2023-02-15T18:04:14;59.73;;;28.60;;
17171;SDS011;8701;50.150;8.756;2023-02-15T18:08:36;64.73;;;28.53;;
17171;SDS011;8701;50.150;8.756;2023-02-15T18:12:56;64.47;;;29.43;;
17171;SDS011;8701;50.150;8.756;2023-02-15T18:17:01;61.27;;;27.50;;
17171;SDS011;8701;50.150;8.756;2023-02-15T18:21:07;60.83;;;27.70;;
17171;SDS011;8701;50.150;8.756;2023-02-15T18:25:13;57.00;;;27.67;;
17171;SDS011;8701;50.150;8.756;2023-02-15T18:29:21;58.50;;;28.27;;
17171;SDS011;8701;50.150;8.756;2023-02-15T18:33:28;61.63;;;29.30;;
17171;SDS011;8701;50.150;8.756;2023-02-15T18:37:35;55.13;;;26.03;;
17171;SDS011;8701;50.150;8.756;2023-02-15T18:41:40;58.87;;;29.37;;
17171;SDS011;8701;50.150;8.756;2023-02-15T18:45:43;60.50;;;29.70;;
17171;SDS011;8701;50.150;8.756;2023-02-15T18:49:51;62.73;;;28.70;;
17171;SDS011;8701;50.150;8.756;2023-02-15T18:53:56;57.93;;;28.00;;
17171;SDS011;8701;50.150;8.756;2023-02-15T18:58:09;57.47;;;27.30;;
17171;SDS011;8701;50.150;8.756;2023-02-15T19:02:19;53.00;;;27.10;;
17171;SDS011;8701;50.150;8.756;2023-02-15T19:06:34;53.67;;;26.80;;
17171;SDS011;8701;50.150;8.756;2023-02-15T19:10:44;57.23;;;26.80;;
17171;SDS011;8701;50.150;8.756;2023-02-15T19:15:17;59.63;;;27.43;;
17171;SDS011;8701;50.150;8.756;2023-02-15T19:19:39;59.20;;;28.50;;
17171;SDS011;8701;50.150;8.756;2023-02-15T19:23:42;52.80;;;26.80;;
17171;SDS011;8701;50.150;8.756;2023-02-15T19:27:51;57.67;;;27.40;;
17171;SDS011;8701;50.150;8.756;2023-02-15T19:31:56;59.30;;;27.80;;
17171;SDS011;8701;50.150;8.756;2023-02-15T19:35:58;47.77;;;24.10;;
17171;SDS011;8701;50.150;8.756;2023-02-15T19:40:03;48.10;;;24.63;;
17171;SDS011;8701;50.150;8.756;2023-02-15T19:44:08;52.00;;;25.53;;
17171;SDS011;8701;50.150;8.756;2023-02-15T19:48:17;56.77;;;26.80;;
17171;SDS011;8701;50.150;8.756;2023-02-15T19:52:20;52.60;;;26.23;;
17171;SDS011;8701;50.150;8.756;2023-02-15T19:56:24;50.53;;;25.30;;
17171;SDS011;8701;50.150;8.756;2023-02-15T20:00:29;53.17;;;25.27;;
17171;SDS011;8701;50.150;8.756;2023-02-15T20:04:44;52.53;;;24.70;;
17171;SDS011;8701;50.150;8.756;2023-02-15T20:08:47;55.53;;;26.07;;
17171;SDS011;8701;50.150;8.756;2023-02-15T20:12:50;56.70;;;26.10;;
17171;SDS011;8701;50.150;8.756;2023-02-15T20:16:54;54.63;;;25.80;;
17171;SDS011;8701;50.150;8.756;2023-02-15T20:20:58;50.00;;;25.70;;
17171;SDS011;8701;50.150;8.756;2023-02-15T20:25:02;43.40;;;22.23;;
17171;SDS011;8701;50.150;8.756;2023-02-15T20:29:07;47.20;;;23.80;;
17171;SDS011;8701;50.150;8.756;2023-02-15T20:33:17;51.13;;;24.27;;
17171;SDS011;8701;50.150;8.756;2023-02-15T20:37:23;52.53;;;24.50;;
17171;SDS011;8701;50.150;8.756;2023-02-15T20:41:28;48.90;;;24.00;;
17171;SDS011;8701;50.150;8.756;2023-02-15T20:45:41;54.40;;;24.20;;
17171;SDS011;8701;50.150;8.756;2023-02-15T20:49:52;56.13;;;25.60;;
17171;SDS011;8701;50.150;8.756;2023-02-15T20:59:08;47.87;;;24.33;;
17171;SDS011;8701;50.150;8.756;2023-02-15T21:03:21;52.33;;;25.77;;
17171;SDS011;8701;50.150;8.756;2023-02-15T21:07:31;58.03;;;26.20;;
17171;SDS011;8701;50.150;8.756;2023-02-15T21:11:34;59.23;;;26.03;;
17171;SDS011;8701;50.150;8.756;2023-02-15T21:15:38;53.23;;;24.77;;
17171;SDS011;8701;50.150;8.756;2023-02-15T21:19:41;44.70;;;21.97;;
17171;SDS011;8701;50.150;8.756;2023-02-15T21:23:51;48.07;;;22.87;;
17171;SDS011;8701;50.150;8.756;2023-02-15T21:27:59;51.43;;;23.20;;
17171;SDS011;8701;50.150;8.756;2023-02-15T21:32:11;45.63;;;21.90;;
17171;SDS011;8701;50.150;8.756;2023-02-15T21:40:25;49.87;;;23.53;;
17171;SDS011;8701;50.150;8.756;2023-02-15T21:44:30;57.57;;;25.00;;
17171;SDS011;8701;50.150;8.756;2023-02-15T21:49:04;53.43;;;24.37;;
17171;SDS011;8701;50.150;8.756;2023-02-15T21:53:21;49.63;;;25.67;;
17171;SDS011;8701;50.150;8.756;2023-02-15T21:57:26;56.30;;;24.63;;
17171;SDS011;8701;50.150;8.756;2023-02-15T22:01:31;59.30;;;26.33;;
17171;SDS011;8701;50.150;8.756;2023-02-15T22:05:35;65.10;;;24.50;;
17171;SDS011;8701;50.150;8.756;2023-02-15T22:09:38;45.67;;;22.97;;
17171;SDS011;8701;50.150;8.756;2023-02-15T22:13:40;51.30;;;23.80;;
17171;SDS011;8701;50.150;8.756;2023-02-15T22:17:44;50.63;;;24.00;;
17171;SDS011;8701;50.150;8.756;2023-02-15T22:21:49;52.80;;;24.53;;
17171;SDS011;8701;50.150;8.756;2023-02-15T22:25:52;50.77;;;24.87;;
17171;SDS011;8701;50.150;8.756;2023-02-15T22:29:57;58.63;;;25.53;;
17171;SDS011;8701;50.150;8.756;2023-02-15T22:34:00;51.13;;;24.20;;
17171;SDS011;8701;50.150;8.756;2023-02-15T22:38:10;50.63;;;23.70;;
17171;SDS011;8701;50.150;8.756;2023-02-15T22:42:17;40.80;;;20.33;;
17171;SDS011;8701;50.150;8.756;2023-02-15T22:46:24;45.73;;;21.60;;
17171;SDS011;8701;50.150;8.756;2023-02-15T22:50:36;46.43;;;22.60;;
17171;SDS011;8701;50.150;8.756;2023-02-15T22:54:40;54.20;;;25.97;;
17171;SDS011;8701;50.150;8.756;2023-02-15T22:58:46;52.93;;;23.23;;
17171;SDS011;8701;50.150;8.756;2023-02-15T23:02:50;54.83;;;23.17;;
17171;SDS011;8701;50.150;8.756;2023-02-15T23:07:12;54.83;;;24.83;;
17171;SDS011;8701;50.150;8.756;2023-02-15T23:11:18;55.40;;;25.20;;
17171;SDS011;8701;50.150;8.756;2023-02-15T23:15:21;56.83;;;25.87;;
17171;SDS011;8701;50.150;8.756;2023-02-15T23:19:26;50.80;;;24.03;;
17171;SDS011;8701;50.150;8.756;2023-02-15T23:23:30;54.20;;;23.07;;
17171;SDS011;8701;50.150;8.756;2023-02-15T23:27:35;56.80;;;26.00;;
17171;SDS011;8701;50.150;8.756;2023-02-15T23:31:55;51.03;;;23.07;;
17171;SDS011;8701;50.150;8.756;2023-02-15T23:35:57;50.63;;;22.90;;
17171;SDS011;8701;50.150;8.756;2023-02-15T23:44:41;54.13;;;23.20;;
17171;SDS011;8701;50.150;8.756;2023-02-15T23:48:44;51.80;;;24.63;;
17171;SDS011;8701;50.150;8.756;2023-02-15T23:52:46;47.00;;;22.67;;
